Time;durP1;ratioP1;P1;durP2;ratioP2;P2;SDS_P1;SDS_P2;PMS_P1;PMS_P2;Temp;Humidity;BMP_temperature;BMP_pressure;BME280_temperature;BME280_humidity;BME280_pressure;Samples;Min_cycle;Max_cycle;Signal;HPM_P1;HPM_P2
2023/09/27 00:02:34;;;;;;;16.92;3.78;;;;;;;18.60;76.66;99184.69;5056555;28;20059;-87
2023/09/27 00:05:19;;;;;;;14.88;4.53;;;;;;;18.52;76.89;99185.91;5066221;28;20472;-86
2023/09/27 00:08:06;;;;;;;22.20;4.68;;;;;;;18.47;77.29;99193.81;5061904;28;20083;-88
2023/09/27 00:10:50;;;;;;;14.55;4.10;;;;;;;18.39;77.58;99192.38;5060371;28;20476;-86
2023/09/27 00:13:34;;;;;;;10.15;3.70;;;;;;;18.41;77.72;99189.47;5060898;28;20075;-87
2023/09/27 00:16:18;;;;;;;19.88;4.22;;;;;;;18.47;78.04;99177.03;5058651;28;20505;-87
2023/09/27 00:19:05;;;;;;;18.23;3.65;;;;;;;18.54;77.93;99180.38;5061100;28;20095;-86
2023/09/27 00:21:49;;;;;;;11.20;4.05;;;;;;;18.59;78.06;99185.75;5062735;28;20047;-86
2023/09/27 00:24:34;;;;;;;16.75;4.25;;;;;;;18.65;78.13;99179.44;5063127;28;20063;-87
2023/09/27 00:27:18;;;;;;;11.00;4.30;;;;;;;18.61;78.12;99180.97;5062212;28;20054;-88
2023/09/27 00:30:03;;;;;;;15.65;4.00;;;;;;;18.59;78.17;99180.44;5057073;28;20450;-86
2023/09/27 00:32:48;;;;;;;16.33;4.00;;;;;;;18.81;77.90;99188.44;5048979;28;20086;-88
2023/09/27 00:35:32;;;;;;;19.20;4.40;;;;;;;18.79;77.68;99190.56;5061677;28;20481;-86
2023/09/27 00:38:16;;;;;;;11.95;3.58;;;;;;;18.60;78.00;99197.19;5057745;28;20452;-86
2023/09/27 00:41:00;;;;;;;16.08;3.80;;;;;;;18.53;78.13;99200.00;5063734;28;20043;-87
2023/09/27 00:43:44;;;;;;;17.08;4.18;;;;;;;18.47;78.55;99208.94;5063367;28;20090;-88
2023/09/27 00:46:30;;;;;;;17.27;4.25;;;;;;;18.47;78.47;99208.94;5063071;28;20077;-87
2023/09/27 00:49:15;;;;;;;13.88;3.30;;;;;;;18.45;78.67;99205.72;5058262;28;20040;-87
2023/09/27 00:52:00;;;;;;;17.40;4.45;;;;;;;18.55;78.76;99203.22;5065707;28;20048;-86
2023/09/27 00:54:44;;;;;;;15.30;3.85;;;;;;;18.67;78.56;99203.94;5065968;28;20094;-86
2023/09/27 00:57:28;;;;;;;14.95;3.67;;;;;;;18.75;78.45;99216.00;5060827;28;20064;-87
2023/09/27 01:00:14;;;;;;;18.15;4.53;;;;;;;18.65;78.61;99211.34;5065006;28;20047;-86
2023/09/27 01:02:59;;;;;;;11.07;3.42;;;;;;;18.62;78.73;99197.75;5061436;28;20121;-86
2023/09/27 01:05:45;;;;;;;14.73;3.97;;;;;;;18.57;79.12;99201.13;5059175;28;20048;-88
2023/09/27 01:08:29;;;;;;;19.10;4.53;;;;;;;18.54;79.24;99198.97;5064543;28;20399;-87
2023/09/27 01:11:14;;;;;;;16.95;4.30;;;;;;;18.81;78.64;99190.28;5059450;28;20543;-87
2023/09/27 01:13:58;;;;;;;16.70;4.00;;;;;;;18.75;78.94;99181.44;5062373;28;20142;-87
2023/09/27 01:16:42;;;;;;;17.92;3.83;;;;;;;18.63;79.07;99184.19;5062569;28;20067;-87
2023/09/27 01:19:26;;;;;;;22.83;5.10;;;;;;;18.71;78.95;99169.69;5062334;28;20509;-87
2023/09/27 01:22:10;;;;;;;17.17;4.15;;;;;;;18.53;79.78;99173.44;5059457;28;20040;-88
2023/09/27 01:24:56;;;;;;;20.55;5.18;;;;;;;18.67;79.54;99177.38;5062634;28;20525;-87
2023/09/27 01:27:41;;;;;;;24.02;4.65;;;;;;;18.70;79.71;99166.25;5062930;28;20394;-85
2023/09/27 01:30:31;;;;;;;11.00;4.10;;;;;;;18.81;79.61;99164.53;5059735;28;20071;-87
2023/09/27 01:33:15;;;;;;;21.25;4.10;;;;;;;18.99;79.64;99167.97;5064518;28;20490;-86
2023/09/27 01:35:59;;;;;;;19.30;3.92;;;;;;;19.02;79.99;99177.28;5060088;28;20043;-86
2023/09/27 01:38:44;;;;;;;22.77;4.15;;;;;;;19.30;79.32;99178.16;5019486;28;1207988;-87
2023/09/27 01:41:28;;;;;;;14.48;3.90;;;;;;;19.49;78.36;99173.31;5056391;28;20043;-85
2023/09/27 01:44:13;;;;;;;22.08;4.32;;;;;;;19.28;78.73;99167.75;5061871;28;20047;-86
2023/09/27 01:46:57;;;;;;;13.50;3.97;;;;;;;19.69;77.40;99162.06;5061972;28;20043;-87
2023/09/27 01:49:41;;;;;;;15.38;4.10;;;;;;;19.70;77.60;99164.47;5060711;28;20097;-86
2023/09/27 01:52:25;;;;;;;14.25;3.70;;;;;;;19.68;77.22;99147.16;5056297;28;20044;-86
2023/09/27 01:55:09;;;;;;;12.32;3.95;;;;;;;19.67;77.25;99132.25;5055528;28;20138;-86
2023/09/27 01:57:53;;;;;;;9.98;4.13;;;;;;;19.50;77.69;99127.81;5058678;28;20107;-88
2023/09/27 02:00:37;;;;;;;17.80;3.58;;;;;;;19.62;77.49;99129.50;5061722;28;20039;-87
2023/09/27 02:03:21;;;;;;;23.77;4.20;;;;;;;19.20;78.49;99123.78;5056253;28;20043;-86
2023/09/27 02:06:05;;;;;;;16.00;4.07;;;;;;;19.49;77.83;99130.72;5060815;28;20043;-85
2023/09/27 02:08:49;;;;;;;13.93;3.70;;;;;;;19.41;78.39;99126.66;5059136;28;20112;-87
2023/09/27 02:11:33;;;;;;;14.07;4.03;;;;;;;19.27;78.28;99099.63;5063438;28;20449;-87
2023/09/27 02:14:17;;;;;;;15.63;3.65;;;;;;;19.39;78.44;99113.59;5060629;28;20042;-87
2023/09/27 02:17:02;;;;;;;11.90;3.15;;;;;;;19.41;78.58;99113.34;5059938;28;20056;-86
2023/09/27 02:19:45;;;;;;;13.15;3.63;;;;;;;19.44;78.32;99120.81;5060819;28;20047;-87
2023/09/27 02:22:29;;;;;;;16.23;3.90;;;;;;;19.62;78.05;99137.50;5058721;28;20509;-85
2023/09/27 02:25:15;;;;;;;15.60;3.67;;;;;;;19.77;77.87;99139.50;5060342;28;20047;-86
2023/09/27 02:27:59;;;;;;;15.18;3.40;;;;;;;19.87;77.61;99133.47;5056285;28;20098;-87
2023/09/27 02:30:44;;;;;;;14.82;3.65;;;;;;;19.80;77.89;99134.47;5062429;28;20112;-87
2023/09/27 02:33:27;;;;;;;17.40;3.92;;;;;;;19.67;77.87;99142.88;5063571;28;20051;-87
2023/09/27 02:36:11;;;;;;;12.10;3.10;;;;;;;19.76;77.60;99141.34;5048586;28;20052;-87
2023/09/27 02:38:57;;;;;;;17.52;4.32;;;;;;;19.70;77.65;99139.72;5060882;28;20177;-87
2023/09/27 02:41:42;;;;;;;15.73;3.88;;;;;;;19.66;77.94;99135.97;5058000;28;20052;-87
2023/09/27 02:44:26;;;;;;;13.98;3.95;;;;;;;19.67;77.90;99134.91;5063342;28;20102;-87
2023/09/27 02:47:10;;;;;;;13.32;3.30;;;;;;;19.69;77.92;99138.91;5065318;28;20059;-88
2023/09/27 02:49:54;;;;;;;16.52;3.63;;;;;;;19.75;77.74;99133.63;5062483;28;20091;-88
2023/09/27 02:52:38;;;;;;;18.08;4.00;;;;;;;19.56;78.06;99120.69;5062255;28;20457;-87
2023/09/27 02:55:25;;;;;;;14.05;3.85;;;;;;;19.59;77.95;99127.34;5061355;28;20521;-87
2023/09/27 02:58:10;;;;;;;15.80;3.90;;;;;;;19.60;77.97;99120.97;5063274;28;20121;-86
2023/09/27 03:00:53;;;;;;;13.70;3.35;;;;;;;19.59;78.32;99116.69;5061550;28;20444;-87
2023/09/27 03:03:38;;;;;;;13.32;3.33;;;;;;;19.51;78.30;99123.28;5062314;28;20040;-86
2023/09/27 03:06:22;;;;;;;18.15;3.67;;;;;;;19.55;78.23;99111.88;5068291;28;20536;-88
2023/09/27 03:09:08;;;;;;;16.55;4.43;;;;;;;19.39;78.71;99104.81;5060972;28;20128;-87
2023/09/27 03:11:53;;;;;;;14.38;5.60;;;;;;;19.37;79.18;99109.56;5065681;28;20743;-87
2023/09/27 03:14:38;;;;;;;13.73;3.70;;;;;;;19.34;78.88;99121.50;5062905;28;20043;-87
2023/09/27 03:17:22;;;;;;;13.13;3.58;;;;;;;19.29;78.79;99120.69;5058869;28;20110;-88
2023/09/27 03:20:09;;;;;;;13.18;3.90;;;;;;;19.22;78.96;99108.34;5068051;28;20043;-87
2023/09/27 03:22:53;;;;;;;12.40;3.40;;;;;;;19.33;78.94;99113.81;5059857;28;20044;-87
2023/09/27 03:25:37;;;;;;;13.25;4.22;;;;;;;19.63;78.25;99104.47;5064922;28;20079;-89
2023/09/27 03:28:21;;;;;;;11.55;3.25;;;;;;;19.29;78.73;99110.81;5067844;28;20050;-88
2023/09/27 03:31:06;;;;;;;14.70;3.95;;;;;;;19.25;79.29;99126.47;5057493;28;20179;-88
2023/09/27 03:33:49;;;;;;;17.90;4.35;;;;;;;19.17;79.42;99110.97;5061697;28;20171;-87
2023/09/27 03:36:34;;;;;;;17.10;3.97;;;;;;;19.49;79.10;99120.06;5061598;28;20044;-87
2023/09/27 03:39:22;;;;;;;13.10;3.95;;;;;;;19.38;78.93;99127.16;5064803;28;20049;-87
2023/09/27 03:42:06;;;;;;;17.80;4.30;;;;;;;19.41;79.06;99123.97;5059381;28;20052;-86
2023/09/27 03:44:51;;;;;;;13.10;4.63;;;;;;;19.41;79.29;99127.47;5061204;28;20047;-87
2023/09/27 03:47:35;;;;;;;21.00;3.97;;;;;;;19.39;79.50;99134.91;5064759;28;20211;-87
2023/09/27 03:50:19;;;;;;;20.10;4.03;;;;;;;19.49;79.26;99134.19;5063575;28;20047;-85
2023/09/27 03:53:04;;;;;;;15.15;4.00;;;;;;;19.49;78.97;99128.88;5068866;28;20048;-87
2023/09/27 03:55:48;;;;;;;21.33;4.85;;;;;;;19.40;79.37;99131.19;5058020;28;20044;-86
2023/09/27 03:58:32;;;;;;;19.67;4.60;;;;;;;19.47;79.30;99144.28;5061820;28;21301;-87
2023/09/27 04:01:16;;;;;;;18.63;4.75;;;;;;;19.42;79.34;99144.22;5066501;28;20440;-87
2023/09/27 04:04:03;;;;;;;12.18;3.70;;;;;;;19.37;79.42;99146.84;5064690;28;20131;-88
2023/09/27 04:06:49;;;;;;;16.35;4.38;;;;;;;19.33;79.63;99135.09;5061996;28;20039;-87
2023/09/27 04:09:33;;;;;;;17.30;4.18;;;;;;;19.25;79.95;99134.47;5059880;28;20091;-87
2023/09/27 04:12:17;;;;;;;14.60;4.05;;;;;;;19.29;79.87;99145.41;5064229;28;20548;-87
2023/09/27 04:15:02;;;;;;;;;;;;;;;19.32;79.60;99128.94;5062117;28;20395;-86
2023/09/27 04:17:48;;;;;;;23.77;5.72;;;;;;;19.17;80.21;99116.28;5066055;28;19919;-86
2023/09/27 04:20:32;;;;;;;21.73;5.15;;;;;;;19.26;80.47;99112.16;5061023;28;20047;-87
2023/09/27 04:23:16;;;;;;;20.52;5.72;;;;;;;19.26;80.34;99101.50;5057046;28;20039;-87
2023/09/27 04:26:01;;;;;;;15.25;5.55;;;;;;;19.33;80.22;99100.50;5058424;28;20094;-87
2023/09/27 04:28:44;;;;;;;19.50;4.85;;;;;;;19.34;80.14;99094.13;5058384;28;20454;-87
2023/09/27 04:31:28;;;;;;;19.20;5.03;;;;;;;19.32;80.47;99101.53;5062770;28;20048;-86
2023/09/27 04:34:12;;;;;;;14.05;4.72;;;;;;;19.24;80.51;99100.13;5063605;28;20083;-85
2023/09/27 04:36:56;;;;;;;21.75;5.15;;;;;;;19.37;80.37;99088.28;5063309;28;20047;-86
2023/09/27 04:39:41;;;;;;;19.92;4.85;;;;;;;19.41;80.32;99084.06;5057329;28;20083;-87
2023/09/27 04:42:25;;;;;;;22.85;4.40;;;;;;;19.35;80.46;99085.88;5048307;28;20076;-87
2023/09/27 04:45:11;;;;;;;12.77;4.43;;;;;;;19.39;80.32;99078.19;5058316;28;20118;-86
2023/09/27 04:47:55;;;;;;;15.95;4.38;;;;;;;19.38;80.20;99079.25;5060785;28;20175;-87
2023/09/27 04:50:39;;;;;;;13.85;4.30;;;;;;;19.37;80.25;99085.63;5065903;28;20101;-87
2023/09/27 04:53:24;;;;;;;18.83;4.50;;;;;;;19.43;80.29;99092.59;5064657;28;20047;-86
2023/09/27 04:56:12;;;;;;;17.30;4.28;;;;;;;19.38;80.47;99092.56;5063268;28;20046;-87
2023/09/27 04:58:58;;;;;;;16.55;4.30;;;;;;;19.44;80.21;99104.84;5063409;28;20120;-87
2023/09/27 05:01:42;;;;;;;13.93;4.28;;;;;;;19.44;80.61;99099.53;5060215;28;20520;-86
2023/09/27 05:04:26;;;;;;;20.20;5.18;;;;;;;19.34;80.67;99094.13;5056077;28;20114;-86
2023/09/27 05:07:10;;;;;;;20.13;4.88;;;;;;;19.41;80.66;99100.03;5058926;28;20043;-87
2023/09/27 05:09:54;;;;;;;15.95;4.18;;;;;;;19.46;80.41;99110.75;5058928;28;20071;-86
2023/09/27 05:12:39;;;;;;;20.08;4.60;;;;;;;19.44;80.59;99120.03;5061754;28;20134;-86
2023/09/27 05:15:23;;;;;;;20.48;4.80;;;;;;;19.41;80.51;99108.84;5057921;28;20122;-86
2023/09/27 05:18:10;;;;;;;15.93;4.85;;;;;;;19.37;80.54;99104.25;5061457;28;20036;-86
2023/09/27 05:20:56;;;;;;;16.15;5.03;;;;;;;19.32;80.68;99112.97;5055510;28;20093;-86
2023/09/27 05:23:41;;;;;;;16.92;4.22;;;;;;;19.27;80.80;99105.78;5061237;28;20090;-86
2023/09/27 05:26:25;;;;;;;10.68;4.07;;;;;;;19.24;80.71;99108.91;5061603;28;20403;-86
2023/09/27 05:29:15;;;;;;;15.98;4.40;;;;;;;19.24;80.65;99105.47;5060732;28;20036;-87
2023/09/27 05:31:59;;;;;;;11.02;3.88;;;;;;;19.17;80.78;99097.66;5064492;28;20075;-87
2023/09/27 05:34:43;;;;;;;16.80;4.47;;;;;;;19.23;80.83;99109.97;5063456;28;20501;-86
2023/09/27 05:37:28;;;;;;;13.60;4.40;;;;;;;19.12;81.05;99095.75;5058345;28;20090;-86
2023/09/27 05:40:12;;;;;;;16.63;4.70;;;;;;;19.21;81.09;99106.75;5060417;28;20125;-87
2023/09/27 05:42:56;;;;;;;24.08;5.57;;;;;;;19.08;81.45;99107.16;5060758;28;20055;-86
2023/09/27 05:45:40;;;;;;;;;;;;;;;19.27;81.07;99108.44;5063898;28;20040;-85
2023/09/27 05:48:24;;;;;;;18.35;4.78;;;;;;;19.24;81.34;99113.44;5062694;28;19924;-87
2023/09/27 05:51:10;;;;;;;17.10;4.43;;;;;;;19.26;81.24;99119.31;5058221;28;20087;-85
2023/09/27 05:53:54;;;;;;;13.95;4.28;;;;;;;19.26;81.29;99114.81;5060627;28;20086;-85
2023/09/27 05:56:38;;;;;;;17.60;5.00;;;;;;;19.22;81.24;99108.34;5059695;28;20106;-85
2023/09/27 05:59:24;;;;;;;21.33;5.47;;;;;;;19.28;81.47;99114.53;5061277;28;20125;-85
2023/09/27 06:02:08;;;;;;;19.80;5.18;;;;;;;19.21;81.43;99105.97;5063339;28;20040;-85
2023/09/27 06:04:52;;;;;;;21.20;4.97;;;;;;;19.15;81.62;99105.09;5060100;28;20418;-85
2023/09/27 06:07:36;;;;;;;16.55;4.85;;;;;;;19.38;81.19;99105.84;5059924;28;20398;-84
2023/09/27 06:10:20;;;;;;;20.10;5.15;;;;;;;19.32;81.33;99102.34;5049366;28;20047;-85
2023/09/27 06:13:07;;;;;;;17.02;4.68;;;;;;;19.31;81.17;99106.06;5060343;28;20039;-84
2023/09/27 06:15:54;;;;;;;21.30;4.95;;;;;;;19.31;81.45;99073.34;5060587;28;20051;-87
2023/09/27 06:18:38;;;;;;;21.17;4.80;;;;;;;19.27;81.60;99073.84;5063539;28;20064;-86
2023/09/27 06:21:23;;;;;;;16.38;5.43;;;;;;;19.32;81.21;99059.75;5058182;28;20044;-87
2023/09/27 06:24:07;;;;;;;17.90;4.97;;;;;;;19.28;81.57;99037.38;5055112;28;20048;-86
2023/09/27 06:26:52;;;;;;;19.73;6.15;;;;;;;19.27;81.59;99017.97;5063707;28;20155;-85
2023/09/27 06:29:37;;;;;;;10.63;4.55;;;;;;;19.32;81.51;99016.38;5054509;28;20060;-86
2023/09/27 06:32:22;;;;;;;11.90;4.68;;;;;;;19.15;81.88;99004.00;5058205;28;20047;-87
2023/09/27 06:35:13;;;;;;;17.33;4.50;;;;;;;19.21;81.67;99005.63;5061225;28;20407;-85
2023/09/27 06:38:00;;;;;;;16.65;5.25;;;;;;;19.15;81.84;99001.34;5059628;28;20089;-85
2023/09/27 06:40:44;;;;;;;10.93;4.40;;;;;;;19.22;81.46;99004.59;5057097;28;20079;-84
2023/09/27 06:43:31;;;;;;;16.98;5.30;;;;;;;19.09;82.02;98997.03;5056897;28;20051;-84
2023/09/27 06:46:17;;;;;;;11.45;5.00;;;;;;;19.20;82.24;99009.34;5058573;28;20274;-86
2023/09/27 06:49:04;;;;;;;10.60;4.43;;;;;;;19.32;82.42;99003.09;5060387;28;20185;-86
2023/09/27 06:51:47;;;;;;;14.55;4.53;;;;;;;19.53;82.38;99007.50;5054392;28;20442;-86
2023/09/27 06:54:31;;;;;;;17.58;6.07;;;;;;;19.60;81.70;99001.16;5062005;28;20036;-85
2023/09/27 06:57:16;;;;;;;15.48;5.22;;;;;;;19.97;81.21;98995.84;5052970;28;20052;-88
2023/09/27 07:00:09;;;;;;;15.95;4.80;;;;;;;20.01;81.68;98982.03;5057622;28;20039;-87
2023/09/27 07:02:55;;;;;;;12.80;4.97;;;;;;;20.21;81.16;98982.13;5059309;28;20113;-84
2023/09/27 07:05:41;;;;;;;13.05;5.15;;;;;;;20.25;81.38;98969.09;5051595;28;20714;-87
2023/09/27 07:08:25;;;;;;;19.73;5.85;;;;;;;20.32;81.37;98969.63;5058357;28;20044;-89
2023/09/27 07:11:09;;;;;;;15.00;5.47;;;;;;;20.45;81.33;98989.66;5044810;28;20075;-87
2023/09/27 07:13:55;;;;;;;14.45;5.15;;;;;;;20.68;81.07;99009.75;5057013;28;20044;-86
2023/09/27 07:16:41;;;;;;;16.17;5.75;;;;;;;20.86;80.73;99034.38;5057314;28;20052;-87
2023/09/27 07:19:37;;;;;;;15.55;5.72;;;;;;;20.86;80.01;99029.03;5055704;28;20403;-86
2023/09/27 07:22:31;;;;;;;21.98;6.22;;;;;;;20.83;79.57;99037.53;5055199;28;20044;-86
2023/09/27 07:25:25;;;;;;;23.52;6.20;;;;;;;20.87;79.42;99059.19;5052546;28;20036;-86
2023/09/27 07:28:11;;;;;;;23.83;6.60;;;;;;;20.81;79.25;99064.50;5055294;28;20040;-91
2023/09/27 07:30:57;;;;;;;16.98;6.75;;;;;;;21.00;79.11;99087.22;5063028;28;20532;-91
2023/09/27 07:33:52;;;;;;;20.05;6.75;;;;;;;20.92;78.95;99085.88;5061593;28;20039;-89
2023/09/27 07:36:36;;;;;;;24.70;7.50;;;;;;;20.92;78.79;99078.69;5059096;28;20031;-90
2023/09/27 07:39:21;;;;;;;19.42;7.25;;;;;;;21.20;78.75;99105.97;5057938;28;20040;-89
2023/09/27 07:42:06;;;;;;;20.95;6.57;;;;;;;21.28;77.91;99111.88;5056224;28;20051;-89
2023/09/27 07:44:50;;;;;;;20.10;6.28;;;;;;;21.36;77.77;99100.66;5061362;28;20051;-88
2023/09/27 07:47:34;;;;;;;22.05;6.75;;;;;;;21.37;77.93;99110.28;5059433;28;20493;-88
2023/09/27 07:50:27;;;;;;;23.63;6.25;;;;;;;21.47;77.14;99099.63;5061427;28;20085;-87
2023/09/27 07:53:12;;;;;;;17.00;5.95;;;;;;;21.40;76.91;99094.53;5063426;28;20395;-87
2023/09/27 07:55:57;;;;;;;16.27;5.10;;;;;;;21.46;77.08;99097.19;5059139;28;20067;-89
2023/09/27 07:58:44;;;;;;;15.50;5.63;;;;;;;21.46;77.54;99102.53;5069505;28;20098;-88
2023/09/27 08:01:28;;;;;;;17.55;6.00;;;;;;;21.53;76.64;99092.41;5064517;28;20128;-88
2023/09/27 08:04:15;;;;;;;15.80;5.93;;;;;;;21.66;76.98;99083.09;5047114;28;20079;-90
2023/09/27 08:06:59;;;;;;;15.82;5.78;;;;;;;21.63;76.58;99073.72;5062790;28;20062;-89
2023/09/27 08:09:43;;;;;;;22.98;6.28;;;;;;;21.77;76.52;99060.66;5063523;28;20040;-87
2023/09/27 08:12:29;;;;;;;20.40;6.88;;;;;;;21.96;76.39;99076.94;5059514;28;20048;-89
2023/09/27 08:15:13;;;;;;;18.85;6.00;;;;;;;22.25;75.59;99062.97;5060891;28;20044;-88
2023/09/27 08:17:57;;;;;;;15.13;4.80;;;;;;;22.34;75.78;99062.44;5062897;28;20153;-88
2023/09/27 08:20:42;;;;;;;18.83;6.47;;;;;;;22.50;75.50;99061.34;5057456;28;20040;-87
2023/09/27 08:23:25;;;;;;;17.95;6.05;;;;;;;22.73;74.97;99055.63;5063805;28;20044;-87
2023/09/27 08:26:14;;;;;;;20.25;5.78;;;;;;;22.76;74.93;99049.72;5057006;28;20052;-81
2023/09/27 08:28:59;;;;;;;21.15;6.20;;;;;;;23.07;74.32;99050.34;5056905;28;21673;-82
2023/09/27 08:31:44;;;;;;;15.90;5.55;;;;;;;23.31;73.58;99046.22;5058814;28;20136;-81
2023/09/27 08:34:28;;;;;;;16.15;5.93;;;;;;;23.38;73.85;99041.31;5061499;28;20038;-82
2023/09/27 08:37:12;;;;;;;15.18;5.90;;;;;;;23.65;73.17;99027.44;5062643;28;20055;-82
2023/09/27 08:39:56;;;;;;;25.13;5.82;;;;;;;23.76;72.53;99025.47;5056345;28;20218;-82
2023/09/27 08:42:43;;;;;;;18.23;5.90;;;;;;;23.69;72.50;99022.31;5050925;28;20075;-81
2023/09/27 08:45:31;;;;;;;19.33;6.70;;;;;;;23.81;71.89;99027.31;5058525;28;20109;-80
2023/09/27 08:48:18;;;;;;;23.25;7.22;;;;;;;23.78;71.61;99028.69;5056393;28;20048;-81
2023/09/27 08:51:04;;;;;;;24.77;6.03;;;;;;;23.58;72.13;99034.19;5061924;28;20043;-81
2023/09/27 08:53:48;;;;;;;23.17;6.60;;;;;;;23.87;71.95;99030.75;5057502;28;20407;-81
2023/09/27 08:56:33;;;;;;;16.30;5.95;;;;;;;23.85;71.33;99035.59;5055185;28;20163;-81
2023/09/27 08:59:18;;;;;;;17.20;5.10;;;;;;;23.96;71.43;99026.34;5043542;28;20192;-82
2023/09/27 09:02:06;;;;;;;17.25;6.25;;;;;;;24.08;71.26;99021.44;5058315;28;20130;-81
2023/09/27 09:04:50;;;;;;;16.60;5.55;;;;;;;24.24;71.40;99022.06;5060289;28;20450;-81
2023/09/27 09:07:34;;;;;;;19.63;5.93;;;;;;;24.27;71.15;99015.31;5058851;28;20090;-81
2023/09/27 09:10:19;;;;;;;15.30;5.07;;;;;;;24.20;71.65;99012.19;5059752;28;20137;-81
2023/09/27 09:13:04;;;;;;;15.48;5.40;;;;;;;24.09;71.39;99008.84;5058675;28;20063;-79
2023/09/27 09:15:49;;;;;;;18.45;5.25;;;;;;;23.75;72.28;98997.06;5056992;28;20039;-87
2023/09/27 09:18:36;;;;;;;20.75;6.07;;;;;;;23.77;72.58;98991.44;5059258;28;20027;-86
2023/09/27 09:21:21;;;;;;;19.50;5.40;;;;;;;23.70;72.99;98989.09;5059016;28;20560;-86
2023/09/27 09:24:19;;;;;;;15.02;5.07;;;;;;;24.16;72.45;98984.34;5061932;28;20086;-85
2023/09/27 09:27:04;;;;;;;23.50;6.30;;;;;;;24.21;71.84;98984.31;5060734;28;20042;-86
2023/09/27 09:29:53;;;;;;;21.73;5.60;;;;;;;24.41;72.04;98987.81;5061924;28;20513;-85
2023/09/27 09:32:49;;;;;;;20.67;6.43;;;;;;;24.34;71.73;98982.78;5060484;28;20102;-86
2023/09/27 09:35:33;;;;;;;15.98;5.15;;;;;;;24.58;71.08;98981.94;5067074;28;20094;-87
2023/09/27 09:38:28;;;;;;;25.23;6.07;;;;;;;25.19;70.50;98974.91;5059858;28;20059;-85
2023/09/27 09:41:12;;;;;;;16.10;5.75;;;;;;;25.46;69.73;98959.94;5057757;28;20248;-86
2023/09/27 09:43:56;;;;;;;16.30;5.25;;;;;;;25.93;68.71;98953.72;5063181;28;20048;-87
2023/09/27 09:46:42;;;;;;;17.50;5.55;;;;;;;26.20;67.25;98944.88;5060223;28;20050;-86
2023/09/27 09:49:27;;;;;;;16.73;5.78;;;;;;;26.34;67.78;98938.69;5061853;28;20051;-87
2023/09/27 09:52:14;;;;;;;22.15;6.88;;;;;;;26.39;66.87;98941.25;5064033;28;20165;-88
2023/09/27 09:54:58;;;;;;;19.88;5.93;;;;;;;27.05;66.67;98918.50;5061907;28;20107;-87
2023/09/27 09:57:45;;;;;;;15.68;6.20;;;;;;;27.03;66.09;98891.91;5055437;28;20040;-87
2023/09/27 10:00:30;;;;;;;17.20;6.45;;;;;;;26.84;65.80;98878.59;5060296;28;20067;-88
2023/09/27 10:03:20;;;;;;;20.35;6.30;;;;;;;26.89;66.04;98881.19;5060964;28;20554;-87
2023/09/27 10:06:10;;;;;;;21.17;6.32;;;;;;;27.05;65.56;98870.03;5057584;28;20043;-87
2023/09/27 10:08:54;;;;;;;15.10;5.55;;;;;;;27.28;65.48;98864.59;5059053;28;20086;-88
2023/09/27 10:11:42;;;;;;;15.48;5.00;;;;;;;27.70;65.21;98856.97;5055320;28;20570;-86
2023/09/27 10:14:28;;;;;;;21.98;6.32;;;;;;;27.71;65.83;98874.78;5042270;28;20559;-87
2023/09/27 10:17:23;;;;;;;18.92;5.85;;;;;;;28.10;63.64;98869.59;5057290;28;20489;-87
2023/09/27 10:20:19;;;;;;;19.23;5.15;;;;;;;28.39;63.16;98868.19;5064440;28;20063;-88
2023/09/27 10:23:10;;;;;;;15.68;4.72;;;;;;;27.96;63.16;98831.16;5056248;28;20047;-88
2023/09/27 10:25:54;;;;;;;13.80;4.88;;;;;;;28.22;62.58;98850.91;5059486;28;20044;-86
2023/09/27 10:29:07;;;;;;;13.48;5.47;;;;;;;27.46;62.97;98862.78;5061440;28;20040;-87
2023/09/27 10:31:58;;;;;;;16.63;4.97;;;;;;;26.94;63.77;98842.56;5059550;28;20445;-87
2023/09/27 10:34:43;;;;;;;16.55;5.00;;;;;;;27.02;63.58;98849.09;5061401;28;20509;-87
2023/09/27 10:37:59;;;;;;;21.02;6.25;;;;;;;27.73;63.46;98850.97;5063333;28;20060;-86
2023/09/27 10:40:47;;;;;;;15.77;5.00;;;;;;;27.56;63.17;98845.53;5055625;28;20032;-87
2023/09/27 10:43:38;;;;;;;19.83;5.28;;;;;;;27.73;62.74;98842.91;5041116;28;20115;-87
2023/09/27 10:46:22;;;;;;;15.15;5.30;;;;;;;27.69;62.59;98838.44;5061473;28;20094;-86
2023/09/27 10:49:07;;;;;;;16.30;4.68;;;;;;;27.87;62.52;98821.19;5056617;28;20043;-87
2023/09/27 10:51:54;;;;;;;12.82;4.32;;;;;;;27.93;62.43;98819.13;5056158;28;20050;-87
2023/09/27 10:54:38;;;;;;;18.58;5.57;;;;;;;27.82;63.28;98809.75;5056030;28;20402;-86
2023/09/27 10:57:22;;;;;;;15.60;4.93;;;;;;;27.61;62.58;98789.59;5061543;28;20042;-87
2023/09/27 11:00:10;;;;;;;15.07;5.22;;;;;;;27.50;62.92;98810.59;5061561;28;20102;-87
2023/09/27 11:02:55;;;;;;;12.32;4.80;;;;;;;27.61;64.04;98805.75;5059353;28;20047;-86
2023/09/27 11:05:46;;;;;;;16.15;6.30;;;;;;;27.07;65.18;98798.59;5062518;28;20060;-87
2023/09/27 11:08:30;;;;;;;13.10;5.15;;;;;;;27.07;66.12;98771.66;5062250;28;20097;-86
2023/09/27 11:11:15;;;;;;;16.27;5.28;;;;;;;26.78;66.10;98772.13;5058895;28;20120;-87
2023/09/27 11:13:59;;;;;;;16.05;5.00;;;;;;;26.92;66.17;98770.19;5061426;28;20075;-87
2023/09/27 11:16:43;;;;;;;14.25;5.05;;;;;;;27.25;65.54;98754.75;5064658;28;20044;-86
2023/09/27 11:19:29;;;;;;;16.52;6.30;;;;;;;26.84;66.62;98732.41;5060128;28;20043;-86
2023/09/27 11:22:43;;;;;;;16.33;5.60;;;;;;;26.94;66.67;98762.56;5061771;28;20111;-88
2023/09/27 11:25:33;;;;;;;14.80;5.65;;;;;;;26.63;66.88;98774.09;5059686;28;20103;-86
2023/09/27 11:28:18;;;;;;;13.80;5.60;;;;;;;26.31;67.82;98762.50;5059577;28;20044;-85
2023/09/27 11:31:04;;;;;;;18.50;6.40;;;;;;;26.31;68.21;98757.13;5057236;28;20040;-87
2023/09/27 11:33:51;;;;;;;17.40;6.80;;;;;;;26.17;68.38;98759.09;5066080;28;20040;-87
2023/09/27 11:36:46;;;;;;;17.58;6.45;;;;;;;26.00;69.02;98740.91;5061218;28;20394;-86
2023/09/27 11:39:50;;;;;;;16.65;6.40;;;;;;;26.05;69.57;98749.66;5061589;28;20039;-86
2023/09/27 11:42:35;;;;;;;12.95;5.47;;;;;;;26.02;69.48;98736.00;5059644;28;20040;-87
2023/09/27 11:45:21;;;;;;;26.00;8.00;;;;;;;25.11;71.84;98733.88;5063040;28;20462;-86
2023/09/27 11:48:05;;;;;;;16.75;7.03;;;;;;;25.39;71.18;98728.50;5060324;28;20185;-87
2023/09/27 11:50:50;;;;;;;15.20;8.10;;;;;;;25.18;72.33;98728.09;5062634;28;20434;-86
2023/09/27 11:53:34;;;;;;;19.42;7.78;;;;;;;25.17;72.85;98710.41;5064816;28;20032;-86
2023/09/27 11:56:18;;;;;;;20.23;8.10;;;;;;;25.10;72.66;98702.75;5063262;28;20044;-86
2023/09/27 11:59:04;;;;;;;20.73;8.52;;;;;;;25.11;73.01;98669.44;5062281;28;20427;-86
2023/09/27 12:01:51;;;;;;;15.52;6.57;;;;;;;25.09;73.09;98650.94;5063597;28;20567;-87
2023/09/27 12:04:36;;;;;;;21.85;7.78;;;;;;;25.09;73.18;98644.78;5061870;28;20154;-86
2023/09/27 12:07:19;;;;;;;19.35;8.20;;;;;;;25.23;73.60;98634.81;5060941;28;20063;-86
2023/09/27 12:10:05;;;;;;;24.75;8.20;;;;;;;24.94;73.79;98627.88;5058598;28;20036;-80
2023/09/27 12:12:49;;;;;;;23.20;8.63;;;;;;;25.00;74.33;98646.59;5064794;28;20174;-80
2023/09/27 12:15:33;;;;;;;16.20;8.05;;;;;;;24.98;74.33;98643.41;5058118;28;20048;-80
2023/09/27 12:18:17;;;;;;;22.38;8.95;;;;;;;25.32;74.12;98642.94;5061886;28;20047;-80
2023/09/27 12:21:03;;;;;;;23.52;9.45;;;;;;;25.23;74.08;98640.16;5061783;28;20129;-80
2023/09/27 12:23:47;;;;;;;20.13;8.43;;;;;;;25.42;73.93;98630.38;5061069;28;20055;-81
2023/09/27 12:26:33;;;;;;;17.20;9.02;;;;;;;25.24;74.47;98631.03;5055462;28;20043;-80
2023/09/27 12:29:17;;;;;;;20.77;8.70;;;;;;;24.93;75.88;98625.50;5060510;28;20079;-80
2023/09/27 12:32:02;;;;;;;21.45;9.02;;;;;;;25.29;75.00;98610.50;5062293;28;20448;-80
2023/09/27 12:34:47;;;;;;;24.75;9.82;;;;;;;25.09;75.62;98575.75;5056935;28;20048;-80
2023/09/27 12:37:30;;;;;;;18.77;8.82;;;;;;;25.21;75.81;98561.81;5060556;28;20051;-80
2023/09/27 12:40:14;;;;;;;28.33;8.88;;;;;;;25.07;76.25;98550.31;5057900;28;20397;-80
2023/09/27 12:43:00;;;;;;;21.50;9.88;;;;;;;25.01;76.74;98530.03;5060654;28;20044;-80
2023/09/27 12:45:44;;;;;;;23.00;9.30;;;;;;;25.18;76.35;98508.69;5061202;28;20528;-80
2023/09/27 12:48:28;;;;;;;24.70;8.32;;;;;;;25.00;77.76;98520.41;5058771;28;20051;-79
2023/09/27 12:51:14;;;;;;;23.55;11.70;;;;;;;25.14;78.29;98513.06;5060937;28;20170;-81
2023/09/27 12:53:58;;;;;;;17.25;8.63;;;;;;;24.83;78.96;98523.72;5062213;28;20102;-79